Time;durP1;ratioP1;P1;durP2;ratioP2;P2;SDS_P1;SDS_P2;PMS_P1;PMS_P2;Temp;Humidity;BMP_temperature;BMP_pressure;BME280_temperature;BME280_humidity;BME280_pressure;Samples;Min_cycle;Max_cycle;Signal;HPM_P1;HPM_P2
2021/03/22 00:02:33;;;;;;;16.97;13.60;;;2.30;99.90;;;;;;6298904;28;20470;-60
2021/03/22 00:05:36;;;;;;;17.50;14.87;;;2.30;99.90;;;;;;6300690;28;20473;-60
2021/03/22 00:08:38;;;;;;;16.53;14.00;;;2.30;99.90;;;;;;6299888;28;20473;-60
2021/03/22 00:11:41;;;;;;;19.00;16.60;;;2.20;99.90;;;;;;6299573;28;20488;-60
2021/03/22 00:14:44;;;;;;;15.23;13.40;;;2.30;99.90;;;;;;6299855;28;20499;-60
2021/03/22 00:17:46;;;;;;;16.00;14.20;;;2.30;99.90;;;;;;6300129;28;20813;-60
2021/03/22 00:20:49;;;;;;;15.63;13.40;;;2.30;99.90;;;;;;6295460;28;20473;-60
2021/03/22 00:23:51;;;;;;;16.77;14.20;;;2.30;99.90;;;;;;6299334;28;20477;-60
2021/03/22 00:26:53;;;;;;;18.20;13.43;;;2.30;99.90;;;;;;6299949;28;20469;-60
2021/03/22 00:30:00;;;;;;;15.30;12.90;;;2.30;99.90;;;;;;6287679;28;20496;-60
2021/03/22 00:33:02;;;;;;;18.90;15.83;;;2.20;99.90;;;;;;6286727;28;20913;-60
2021/03/22 00:36:06;;;;;;;18.40;13.90;;;2.10;99.90;;;;;;6297286;28;20476;-60
2021/03/22 00:39:09;;;;;;;15.17;13.37;;;2.10;99.90;;;;;;6274844;28;20560;-60
2021/03/22 00:42:11;;;;;;;14.23;11.77;;;2.10;99.90;;;;;;6274201;28;20987;-60
2021/03/22 00:45:16;;;;;;;17.97;13.40;;;2.00;99.90;;;;;;6281880;28;20461;-60
2021/03/22 00:48:18;;;;;;;15.50;13.07;;;2.00;99.90;;;;;;6322879;28;20480;-60
2021/03/22 00:51:21;;;;;;;12.73;10.87;;;2.00;99.90;;;;;;6301135;28;20473;-60
2021/03/22 00:54:23;;;;;;;17.57;12.90;;;2.00;99.90;;;;;;6299284;28;20465;-60
2021/03/22 00:57:25;;;;;;;13.67;11.70;;;2.00;99.90;;;;;;6286784;28;20485;-60
2021/03/22 01:00:31;;;;;;;12.00;10.13;;;2.00;99.90;;;;;;6270544;28;20471;-60
2021/03/22 01:03:36;;;;;;;12.40;9.33;;;2.00;99.90;;;;;;6270731;28;20477;-61
2021/03/22 01:06:39;;;;;;;9.63;8.63;;;2.00;99.90;;;;;;6270610;28;20557;-61
2021/03/22 01:09:41;;;;;;;9.33;6.03;;;2.10;99.90;;;;;;6270288;28;20996;-61
2021/03/22 01:12:43;;;;;;;8.33;7.00;;;2.10;99.90;;;;;;6271667;28;20476;-61
2021/03/22 01:15:47;;;;;;;8.27;7.20;;;2.20;99.90;;;;;;6272239;28;20505;-61
2021/03/22 01:18:51;;;;;;;8.17;6.20;;;2.30;99.90;;;;;;6272669;28;20478;-59
2021/03/22 01:21:58;;;;;;;7.53;4.90;;;2.30;99.90;;;;;;6274345;28;20489;-60
2021/03/22 01:25:01;;;;;;;5.07;3.90;;;2.40;99.90;;;;;;6275840;28;20823;-59
2021/03/22 01:28:04;;;;;;;3.87;3.60;;;2.40;99.90;;;;;;6274476;28;20482;-59
2021/03/22 01:31:09;;;;;;;3.20;2.77;;;2.50;99.90;;;;;;6279722;28;20466;-61
2021/03/22 01:34:11;;;;;;;3.40;2.97;;;2.60;99.90;;;;;;6285272;28;20466;-61
2021/03/22 01:37:14;;;;;;;4.10;3.70;;;2.80;99.90;;;;;;6288725;28;20475;-62
2021/03/22 01:40:42;;;;;;;4.93;4.40;;;3.00;99.90;;;;;;6289081;28;20474;-62
2021/03/22 01:44:12;;;;;;;5.40;5.00;;;3.10;99.90;;;;;;6259746;28;20482;-62
2021/03/22 01:47:18;;;;;;;5.77;4.77;;;3.10;99.90;;;;;;6264984;28;20983;-62
2021/03/22 01:50:24;;;;;;;6.00;4.43;;;3.10;99.90;;;;;;6266778;28;20481;-61
2021/03/22 01:53:27;;;;;;;5.30;4.80;;;3.00;99.90;;;;;;6265145;28;20560;-61
2021/03/22 01:56:32;;;;;;;6.30;5.10;;;3.00;99.90;;;;;;6266102;28;20469;-62
2021/03/22 01:59:35;;;;;;;4.97;4.53;;;3.00;99.90;;;;;;6277565;28;20473;-62
2021/03/22 02:02:39;;;;;;;5.53;4.63;;;3.00;99.70;;;;;;6277434;28;20865;-62
2021/03/22 02:05:44;;;;;;;5.17;4.67;;;3.00;99.90;;;;;;6277715;28;20474;-62
2021/03/22 02:08:48;;;;;;;5.83;4.50;;;2.90;99.50;;;;;;6277318;28;20837;-62
2021/03/22 02:11:50;;;;;;;6.90;5.07;;;2.90;99.40;;;;;;6277490;28;20474;-62
2021/03/22 02:14:54;;;;;;;6.27;5.67;;;2.80;99.50;;;;;;6277383;28;20478;-62
2021/03/22 02:18:07;;;;;;;8.00;6.00;;;2.80;99.50;;;;;;6277102;28;20481;-62
2021/03/22 02:21:48;;;;;;;5.50;4.93;;;2.70;99.60;;;;;;6277347;28;20474;-62
2021/03/22 02:25:13;;;;;;;5.77;5.03;;;2.70;99.60;;;;;;6276704;28;20624;-62
2021/03/22 02:28:52;;;;;;;5.30;4.80;;;2.60;99.30;;;;;;6277008;28;20971;-62
2021/03/22 02:32:09;;;;;;;6.23;5.60;;;2.50;99.40;;;;;;6277043;28;20536;-62
2021/03/22 02:35:19;;;;;;;5.20;4.80;;;2.50;99.50;;;;;;6276648;28;20470;-62
2021/03/22 02:38:27;;;;;;;6.30;5.70;;;2.40;99.60;;;;;;6277086;28;20466;-62
2021/03/22 02:41:33;;;;;;;6.70;5.93;;;2.40;99.50;;;;;;6276465;28;20571;-62
2021/03/22 02:44:37;;;;;;;9.40;5.47;;;2.30;99.60;;;;;;6276917;28;20466;-62
2021/03/22 02:47:58;;;;;;;6.97;6.30;;;2.30;99.60;;;;;;6276855;28;20481;-62
2021/03/22 02:51:14;;;;;;;5.73;5.20;;;2.30;99.60;;;;;;6276516;28;20527;-62
2021/03/22 02:54:24;;;;;;;8.43;7.63;;;2.20;99.60;;;;;;6276446;28;20477;-62
2021/03/22 02:57:34;;;;;;;6.00;5.40;;;2.20;99.60;;;;;;6276902;28;20470;-62
2021/03/22 03:00:38;;;;;;;7.87;6.63;;;2.10;99.60;;;;;;6277458;28;20480;-62
2021/03/22 03:03:41;;;;;;;6.83;6.13;;;2.10;99.90;;;;;;6277192;28;20539;-62
2021/03/22 03:06:47;;;;;;;9.10;6.50;;;2.00;99.50;;;;;;6277153;28;20476;-62
2021/03/22 03:09:50;;;;;;;6.47;5.80;;;1.90;99.60;;;;;;6277220;28;20466;-62
2021/03/22 03:12:52;;;;;;;12.23;6.20;;;1.90;99.70;;;;;;6277346;28;20798;-62
2021/03/22 03:15:54;;;;;;;7.70;5.90;;;2.00;99.70;;;;;;6277131;28;20486;-62
2021/03/22 03:18:57;;;;;;;7.13;5.43;;;2.00;99.50;;;;;;6276864;28;20473;-62
2021/03/22 03:22:00;;;;;;;5.07;4.53;;;2.00;99.50;;;;;;6276831;28;20489;-62
2021/03/22 03:25:05;;;;;;;5.17;4.67;;;2.00;99.40;;;;;;6276735;28;20923;-62
2021/03/22 03:28:07;;;;;;;5.20;4.70;;;2.00;99.30;;;;;;6277213;28;20475;-62
2021/03/22 03:31:10;;;;;;;6.53;5.40;;;2.00;99.40;;;;;;6276804;28;20474;-62
2021/03/22 03:34:12;;;;;;;6.37;5.70;;;2.10;99.40;;;;;;6267514;28;20823;-63
2021/03/22 03:37:15;;;;;;;5.80;5.20;;;2.10;99.50;;;;;;6276910;28;20469;-63
2021/03/22 03:40:25;;;;;;;9.93;6.17;;;2.10;99.60;;;;;;6276519;28;20551;-63
2021/03/22 03:43:27;;;;;;;8.67;5.50;;;2.10;99.50;;;;;;6276148;28;20486;-63
2021/03/22 03:46:30;;;;;;;5.63;5.13;;;2.10;99.50;;;;;;6275284;28;20619;-63
2021/03/22 03:49:32;;;;;;;7.57;4.73;;;2.10;99.40;;;;;;6276089;28;20967;-63
2021/03/22 03:52:35;;;;;;;5.73;4.70;;;2.20;99.50;;;;;;6275990;28;20466;-63
2021/03/22 03:55:39;;;;;;;6.50;4.90;;;2.30;99.50;;;;;;6276242;28;20587;-63
2021/03/22 03:58:41;;;;;;;4.03;3.70;;;2.30;99.40;;;;;;6275859;28;20489;-63
2021/03/22 04:01:43;;;;;;;5.03;4.30;;;2.30;99.80;;;;;;6275684;28;20458;-63
2021/03/22 04:04:46;;;;;;;4.13;3.73;;;2.30;99.90;;;;;;6276139;28;20446;-63
2021/03/22 04:07:49;;;;;;;6.67;4.00;;;2.40;99.90;;;;;;6275734;28;20442;-62
2021/03/22 04:10:51;;;;;;;5.87;4.67;;;2.40;99.90;;;;;;6275429;28;20447;-63
2021/03/22 04:13:55;;;;;;;4.00;3.60;;;2.50;99.90;;;;;;6275486;28;20789;-63
2021/03/22 04:16:57;;;;;;;4.10;3.73;;;2.50;99.90;;;;;;6275495;28;20910;-63
2021/03/22 04:20:00;;;;;;;3.87;3.57;;;2.60;99.90;;;;;;6276110;28;20427;-63
2021/03/22 04:23:03;;;;;;;4.43;4.03;;;2.60;99.90;;;;;;6275175;28;20556;-61
2021/03/22 04:26:06;;;;;;;3.50;3.30;;;2.60;99.90;;;;;;6274989;28;20834;-63
2021/03/22 04:29:08;;;;;;;3.50;3.20;;;2.60;99.90;;;;;;6275621;28;20477;-62
2021/03/22 04:32:11;;;;;;;4.23;3.00;;;2.60;99.90;;;;;;6275402;28;20470;-62
2021/03/22 04:35:13;;;;;;;5.30;3.50;;;2.60;99.90;;;;;;6271086;28;20454;-62
2021/03/22 04:38:17;;;;;;;5.10;3.57;;;2.60;99.90;;;;;;6275190;28;20466;-62
2021/03/22 04:41:19;;;;;;;3.67;3.10;;;2.60;99.90;;;;;;6274799;28;20806;-63
2021/03/22 04:44:22;;;;;;;3.37;3.07;;;2.60;99.90;;;;;;6275040;28;20481;-62
2021/03/22 04:47:24;;;;;;;4.80;3.37;;;2.60;99.90;;;;;;6274806;28;20978;-62
2021/03/22 04:50:28;;;;;;;8.33;3.70;;;2.60;99.90;;;;;;6275132;28;20473;-62
2021/03/22 04:53:31;;;;;;;4.80;3.07;;;2.60;99.90;;;;;;6274522;28;20959;-62
2021/03/22 04:56:33;;;;;;;3.67;3.20;;;2.60;99.90;;;;;;6275113;28;20501;-63
2021/03/22 04:59:35;;;;;;;5.47;3.60;;;2.60;99.90;;;;;;6275324;28;20480;-62
2021/03/22 05:02:37;;;;;;;4.03;3.70;;;2.60;99.90;;;;;;6274832;28;20477;-62
2021/03/22 05:05:40;;;;;;;6.40;4.30;;;2.60;99.90;;;;;;6274851;28;20571;-63
2021/03/22 05:08:43;;;;;;;5.40;4.90;;;2.70;99.90;;;;;;6274571;28;20482;-63
2021/03/22 05:11:45;;;;;;;6.70;4.57;;;2.70;99.90;;;;;;6274491;28;20485;-63
2021/03/22 05:14:48;;;;;;;9.10;4.77;;;2.70;99.90;;;;;;6274865;28;20773;-62
2021/03/22 05:17:51;;;;;;;4.57;4.17;;;2.70;99.90;;;;;;6274730;28;20515;-63
2021/03/22 05:20:56;;;;;;;3.50;3.20;;;2.80;99.90;;;;;;6274573;28;20474;-62
2021/03/22 05:23:59;;;;;;;6.00;4.30;;;2.80;99.90;;;;;;6274640;28;20486;-62
2021/03/22 05:27:01;;;;;;;4.20;3.80;;;2.90;99.90;;;;;;6274568;28;20472;-62
2021/03/22 05:30:05;;;;;;;6.83;3.73;;;3.00;99.90;;;;;;6274313;28;20481;-63
2021/03/22 05:33:11;;;;;;;4.07;3.67;;;3.00;99.90;;;;;;6274112;28;20477;-62
2021/03/22 05:36:13;;;;;;;5.87;4.17;;;3.10;99.90;;;;;;6274262;28;20899;-62
2021/03/22 05:39:17;;;;;;;5.20;4.80;;;3.20;99.90;;;;;;6274094;28;20474;-63
2021/03/22 05:42:41;;;;;;;6.47;4.40;;;3.30;99.90;;;;;;6274198;28;20485;-62
2021/03/22 05:46:06;;;;;;;4.87;4.43;;;3.50;99.90;;;;;;6274165;28;20463;-62
2021/03/22 05:49:31;;;;;;;5.43;4.87;;;3.60;99.90;;;;;;6274249;28;20471;-63
2021/03/22 05:52:48;;;;;;;5.33;4.83;;;3.80;99.90;;;;;;6273455;28;20467;-64
2021/03/22 05:55:55;;;;;;;6.00;4.20;;;3.90;99.90;;;;;;6273180;28;20451;-63
2021/03/22 05:59:08;;;;;;;4.13;3.07;;;4.00;99.60;;;;;;6273001;28;20868;-63
2021/03/22 06:02:14;;;;;;;4.80;3.43;;;4.20;98.90;;;;;;6273130;28;20695;-64
2021/03/22 06:05:32;;;;;;;6.43;3.80;;;4.30;97.90;;;;;;6272901;28;20485;-63
2021/03/22 06:08:43;;;;;;;5.43;4.33;;;4.50;97.40;;;;;;6272856;28;20949;-63
2021/03/22 06:11:57;;;;;;;8.37;7.53;;;4.60;96.90;;;;;;6277158;28;20474;-63
2021/03/22 06:15:05;;;;;;;6.57;4.90;;;4.70;95.90;;;;;;6277310;28;20470;-63
2021/03/22 06:18:22;;;;;;;4.70;4.17;;;4.80;94.80;;;;;;6276942;28;20473;-62
2021/03/22 06:21:28;;;;;;;4.80;3.10;;;5.00;94.40;;;;;;6277114;28;20813;-62
2021/03/22 06:24:30;;;;;;;2.47;2.27;;;5.10;93.10;;;;;;6276579;28;20474;-63
2021/03/22 06:27:33;;;;;;;3.47;2.57;;;5.20;92.00;;;;;;6276885;28;20839;-63
2021/03/22 06:30:35;;;;;;;2.80;2.60;;;5.40;91.60;;;;;;6276981;28;20474;-63
2021/03/22 06:33:41;;;;;;;2.40;2.20;;;5.50;90.20;;;;;;6276672;28;20806;-63
2021/03/22 06:36:44;;;;;;;2.47;2.27;;;5.60;88.20;;;;;;6276714;28;20493;-63
2021/03/22 06:39:49;;;;;;;2.30;1.80;;;5.80;86.70;;;;;;6276651;28;20470;-63
2021/03/22 06:43:05;;;;;;;3.80;2.10;;;5.90;84.30;;;;;;6276642;28;20501;-63
2021/03/22 06:46:12;;;;;;;3.87;2.30;;;6.10;83.00;;;;;;6266968;28;20481;-63
2021/03/22 06:49:24;;;;;;;4.27;1.87;;;6.20;81.60;;;;;;6274458;28;20478;-63
2021/03/22 06:52:37;;;;;;;4.10;2.40;;;6.40;78.90;;;;;;6274216;28;20497;-63
2021/03/22 06:55:42;;;;;;;4.17;1.67;;;6.70;77.60;;;;;;6274493;28;20847;-63
2021/03/22 06:58:46;;;;;;;7.00;2.70;;;7.00;75.90;;;;;;6275045;28;20497;-63
2021/03/22 07:01:50;;;;;;;3.60;2.00;;;7.20;72.90;;;;;;6274849;28;20458;-63
2021/03/22 07:04:52;;;;;;;3.97;1.80;;;7.20;71.30;;;;;;6276030;28;20619;-63
2021/03/22 07:07:56;;;;;;;7.60;1.87;;;7.40;71.30;;;;;;6276098;28;20460;-63
2021/03/22 07:11:09;;;;;;;1.97;1.87;;;7.60;67.60;;;;;;6276202;28;20439;-63
2021/03/22 07:14:25;;;;;;;2.37;1.83;;;8.40;65.40;;;;;;6276227;28;20470;-63
2021/03/22 07:17:27;;;;;;;2.57;2.20;;;9.40;60.10;;;;;;6275835;28;20798;-63
2021/03/22 07:20:30;;;;;;;2.63;2.00;;;9.80;56.10;;;;;;6275916;28;20470;-63
2021/03/22 07:23:58;;;;;;;4.00;2.00;;;9.90;55.20;;;;;;6275584;28;20481;-63
2021/03/22 07:27:17;;;;;;;2.93;1.87;;;9.90;54.50;;;;;;6275536;28;20812;-63
2021/03/22 07:30:33;;;;;;;7.60;2.23;;;9.90;53.30;;;;;;6275707;28;20478;-63
2021/03/22 07:33:44;;;;;;;3.37;2.40;;;10.60;51.70;;;;;;6280326;28;20779;-62
2021/03/22 07:36:51;;;;;;;5.77;2.63;;;11.80;49.20;;;;;;6288003;28;20470;-62
2021/03/22 07:39:58;;;;;;;5.23;3.27;;;13.20;46.50;;;;;;6285717;28;21823;-63
2021/03/22 07:43:12;;;;;;;2.43;1.90;;;15.10;41.90;;;;;;6286467;28;20470;-63
2021/03/22 07:46:29;;;;;;;5.10;2.17;;;16.00;38.50;;;;;;6287566;28;20466;-63
2021/03/22 07:49:49;;;;;;;2.53;1.67;;;16.10;36.40;;;;;;6291439;28;20501;-63
2021/03/22 07:52:58;;;;;;;2.83;1.60;;;15.60;35.00;;;;;;6301204;28;20453;-63
2021/03/22 07:56:10;;;;;;;6.60;2.40;;;15.20;34.60;;;;;;6300763;28;20875;-63
2021/03/22 07:59:22;;;;;;;4.83;2.13;;;15.30;34.80;;;;;;6300209;28;20533;-62
2021/03/22 08:02:40;;;;;;;2.30;1.73;;;14.90;34.30;;;;;;6300775;28;20469;-62
2021/03/22 08:06:03;;;;;;;5.03;1.80;;;14.70;34.30;;;;;;6297700;28;20480;-64
2021/03/22 08:09:17;;;;;;;1.90;1.70;;;14.60;34.60;;;;;;6285299;28;20476;-62
2021/03/22 08:12:25;;;;;;;3.67;1.90;;;14.80;34.60;;;;;;6287314;28;20478;-64
2021/03/22 08:15:35;;;;;;;2.07;1.90;;;15.60;33.90;;;;;;6285313;28;20476;-64
2021/03/22 08:18:43;;;;;;;2.70;1.90;;;15.60;33.90;;;;;;6284922;28;20477;-64
2021/03/22 08:22:00;;;;;;;2.30;2.10;;;16.40;33.20;;;;;;6299208;28;20474;-64
2021/03/22 08:25:20;;;;;;;2.20;1.80;;;17.50;31.60;;;;;;6299801;28;20523;-64
2021/03/22 08:28:30;;;;;;;3.40;2.20;;;18.20;31.30;;;;;;6300148;28;20480;-61
2021/03/22 08:31:44;;;;;;;2.80;2.10;;;19.10;30.20;;;;;;6300370;28;20485;-64
2021/03/22 08:34:57;;;;;;;6.90;2.73;;;20.50;27.60;;;;;;6300895;28;20204;-62
2021/03/22 08:38:01;;;;;;;8.07;3.50;;;21.70;27.10;;;;;;6300342;28;20206;-62
2021/03/22 08:41:17;;;;;;;3.93;2.87;;;21.20;25.60;;;;;;6299934;28;20223;-64
2021/03/22 08:44:24;;;;;;;2.30;1.77;;;21.10;25.70;;;;;;6299944;28;20668;-62
2021/03/22 08:47:42;;;;;;;2.60;1.97;;;22.40;25.70;;;;;;6300204;28;20226;-64
2021/03/22 08:50:47;;;;;;;2.60;2.23;;;23.90;24.30;;;;;;6296175;28;20231;-63
2021/03/22 08:53:53;;;;;;;3.30;2.23;;;24.10;23.30;;;;;;6300411;28;20249;-65
2021/03/22 08:57:05;;;;;;;2.30;1.93;;;23.30;23.60;;;;;;6286577;28;20636;-62
2021/03/22 09:00:27;;;;;;;4.57;2.80;;;25.60;23.00;;;;;;6281154;28;20669;-63
2021/03/22 09:03:32;;;;;;;4.27;1.90;;;28.30;21.20;;;;;;6284356;28;20433;-63
2021/03/22 09:06:56;;;;;;;3.03;1.90;;;28.90;19.60;;;;;;6289669;28;20229;-64
2021/03/22 09:10:19;;;;;;;2.03;1.70;;;28.50;20.00;;;;;;6274294;28;20238;-63
2021/03/22 09:13:28;;;;;;;3.37;1.63;;;29.50;19.30;;;;;;6274349;28;20231;-63
2021/03/22 09:16:41;;;;;;;2.70;2.03;;;29.20;18.50;;;;;;6296274;28;20222;-64
2021/03/22 09:19:45;;;;;;;2.40;2.20;;;27.20;19.10;;;;;;6292142;28;20227;-64
2021/03/22 09:23:00;;;;;;;4.73;2.30;;;25.40;19.20;;;;;;6275822;28;20238;-64
2021/03/22 09:26:04;;;;;;;3.87;1.60;;;24.60;20.50;;;;;;6286310;28;20222;-65
2021/03/22 09:29:34;;;;;;;6.90;2.83;;;24.80;20.40;;;;;;6280794;28;20231;-63
2021/03/22 09:32:45;;;;;;;2.23;2.00;;;24.50;20.30;;;;;;6298592;28;20242;-64
2021/03/22 09:36:24;;;;;;;2.60;1.60;;;22.60;21.10;;;;;;6298804;28;20748;-63
2021/03/22 09:39:48;;;;;;;2.93;1.80;;;21.90;21.70;;;;;;6298839;28;20227;-63
2021/03/22 09:43:11;;;;;;;1.80;1.70;;;22.80;21.90;;;;;;6298989;28;20231;-64
2021/03/22 09:46:37;;;;;;;2.20;2.00;;;24.20;20.70;;;;;;6302336;28;20242;-63
2021/03/22 09:50:19;;;;;;;2.17;1.50;;;25.20;20.00;;;;;;6303401;28;20234;-63
2021/03/22 09:53:26;;;;;;;5.30;2.77;;;26.10;19.40;;;;;;6281367;28;20231;-65
2021/03/22 09:56:32;;;;;;;2.10;1.90;;;26.90;18.70;;;;;;6284483;28;20220;-62
2021/03/22 09:59:38;;;;;;;4.93;2.40;;;27.00;18.40;;;;;;6278761;28;20223;-63
2021/03/22 10:02:44;;;;;;;2.10;1.90;;;27.00;18.30;;;;;;6278966;28;20231;-64
2021/03/22 10:05:59;;;;;;;2.50;1.70;;;27.40;18.20;;;;;;6284246;28;20680;-63
2021/03/22 10:09:02;;;;;;;2.93;2.13;;;28.20;17.40;;;;;;6296636;28;20710;-64
2021/03/22 10:12:21;;;;;;;2.03;1.83;;;27.80;17.30;;;;;;6280851;28;20711;-62
2021/03/22 10:15:29;;;;;;;2.80;2.30;;;26.80;16.70;;;;;;6278142;28;20231;-63
2021/03/22 10:18:38;;;;;;;4.40;2.13;;;25.60;17.90;;;;;;6286397;28;20563;-63
2021/03/22 10:21:46;;;;;;;5.80;2.20;;;26.10;17.80;;;;;;6277849;28;20240;-63
2021/03/22 10:24:54;;;;;;;2.83;1.90;;;26.10;17.40;;;;;;6277603;28;20257;-63
2021/03/22 10:28:03;;;;;;;4.20;1.90;;;26.10;17.40;;;;;;6278436;28;20238;-64
2021/03/22 10:31:13;;;;;;;2.60;2.40;;;26.40;17.00;;;;;;6278057;28;20707;-63
2021/03/22 10:34:24;;;;;;;2.80;1.87;;;26.20;16.90;;;;;;6299685;28;20684;-64
2021/03/22 10:37:29;;;;;;;2.13;1.93;;;26.20;17.20;;;;;;6302455;28;20230;-64
2021/03/22 10:40:36;;;;;;;3.33;2.10;;;26.40;17.20;;;;;;6302616;28;20241;-63
2021/03/22 10:43:41;;;;;;;4.70;2.00;;;26.50;17.40;;;;;;6301517;28;20317;-63
2021/03/22 10:46:44;;;;;;;2.90;2.10;;;25.60;17.60;;;;;;6301963;28;20242;-64
2021/03/22 10:49:48;;;;;;;2.53;2.27;;;25.50;17.90;;;;;;6276818;28;20223;-64
2021/03/22 10:53:05;;;;;;;3.03;2.20;;;25.20;17.50;;;;;;6302174;28;20248;-65
2021/03/22 10:56:18;;;;;;;3.73;1.97;;;23.70;17.20;;;;;;6301815;28;20276;-64
2021/03/22 10:59:23;;;;;;;2.90;2.43;;;22.20;18.80;;;;;;6265237;28;20243;-64
2021/03/22 11:02:33;;;;;;;2.43;2.10;;;21.20;19.10;;;;;;6257954;28;20276;-63
2021/03/22 11:05:38;;;;;;;1.87;1.67;;;21.00;19.10;;;;;;6276870;28;20229;-64
2021/03/22 11:08:44;;;;;;;5.43;4.00;;;21.00;19.60;;;;;;6277292;28;20314;-63
2021/03/22 11:11:48;;;;;;;2.67;2.13;;;20.80;19.20;;;;;;6276957;28;20562;-63
2021/03/22 11:15:02;;;;;;;2.03;1.83;;;20.60;19.50;;;;;;6277027;28;20688;-63
2021/03/22 11:18:07;;;;;;;3.07;2.37;;;20.50;19.40;;;;;;6276818;28;20225;-62
2021/03/22 11:21:19;;;;;;;2.33;2.13;;;20.00;19.10;;;;;;6262857;28;20238;-62
2021/03/22 11:24:39;;;;;;;2.60;2.40;;;19.90;19.60;;;;;;6269952;28;20220;-62
2021/03/22 11:27:59;;;;;;;2.20;2.00;;;19.80;19.60;;;;;;6264120;28;20217;-62
2021/03/22 11:31:05;;;;;;;3.10;1.80;;;20.00;19.30;;;;;;6251868;28;20270;-63
2021/03/22 11:34:17;;;;;;;3.40;2.40;;;19.80;18.90;;;;;;6251654;28;20698;-65
2021/03/22 11:37:22;;;;;;;2.40;1.53;;;20.00;19.00;;;;;;6251726;28;20228;-63
2021/03/22 11:40:27;;;;;;;3.13;1.90;;;19.90;18.30;;;;;;6251755;28;20240;-62
2021/03/22 11:43:40;;;;;;;4.87;2.33;;;20.20;19.60;;;;;;6250751;28;20247;-63
2021/03/22 11:46:44;;;;;;;2.13;1.80;;;20.90;18.50;;;;;;6266721;28;20227;-63
2021/03/22 11:49:49;;;;;;;2.60;1.80;;;20.90;18.40;;;;;;6255462;28;20295;-63
2021/03/22 11:53:01;;;;;;;2.00;1.73;;;20.40;18.10;;;;;;6273671;28;20683;-64
2021/03/22 11:56:24;;;;;;;3.67;2.20;;;19.40;22.20;;;;;;6273087;28;20192;-64
2021/03/22 11:59:27;;;;;;;1.50;1.40;;;18.30;20.30;;;;;;6274978;28;20224;-63
2021/03/22 12:02:33;;;;;;;1.60;1.50;;;17.10;20.00;;;;;;6279752;28;20482;-63
2021/03/22 12:05:37;;;;;;;1.50;1.40;;;15.80;21.30;;;;;;6268047;28;20557;-64
2021/03/22 12:08:43;;;;;;;2.70;1.70;;;14.90;22.10;;;;;;6249688;28;20493;-64
2021/03/22 12:11:45;;;;;;;2.47;1.37;;;14.30;23.50;;;;;;6250015;28;20475;-62
2021/03/22 12:14:48;;;;;;;2.90;1.80;;;13.70;23.30;;;;;;6247922;28;20604;-65
2021/03/22 12:17:56;;;;;;;3.83;1.80;;;13.40;23.70;;;;;;6249986;28;20479;-65
2021/03/22 12:21:01;;;;;;;4.50;2.30;;;14.60;24.30;;;;;;6250980;28;20632;-64
2021/03/22 12:24:04;;;;;;;2.40;1.50;;;16.20;23.00;;;;;;6257912;28;20514;-63
2021/03/22 12:27:11;;;;;;;1.90;1.80;;;16.30;22.10;;;;;;6271666;28;20986;-64
2021/03/22 12:30:15;;;;;;;1.80;1.70;;;15.40;21.50;;;;;;6262038;28;20475;-63
2021/03/22 12:33:25;;;;;;;2.43;1.70;;;14.80;22.10;;;;;;6249598;28;20489;-64
2021/03/22 12:36:28;;;;;;;3.63;1.80;;;14.70;23.10;;;;;;6249495;28;20471;-65
2021/03/22 12:39:33;;;;;;;2.00;1.90;;;14.30;23.40;;;;;;6267871;28;20478;-63
2021/03/22 12:42:35;;;;;;;2.10;1.83;;;14.70;23.50;;;;;;6274273;28;20482;-65
2021/03/22 12:45:38;;;;;;;2.57;1.50;;;14.80;23.20;;;;;;6273892;28;20627;-65
2021/03/22 12:48:41;;;;;;;2.40;1.70;;;15.40;23.70;;;;;;6273230;28;20500;-64
2021/03/22 12:51:44;;;;;;;1.43;1.33;;;16.30;23.40;;;;;;6270857;28;20482;-64
2021/03/22 12:54:46;;;;;;;1.87;1.20;;;17.20;22.40;;;;;;6266184;28;20604;-64
2021/03/22 12:57:49;;;;;;;2.23;1.70;;;17.40;22.00;;;;;;6246289;28;20491;-64
2021/03/22 13:00:52;;;;;;;4.67;1.63;;;17.50;21.90;;;;;;6249598;28;21015;-65
2021/03/22 13:03:56;;;;;;;1.93;1.40;;;17.80;22.50;;;;;;6247528;28;20475;-65
2021/03/22 13:06:59;;;;;;;1.67;1.57;;;18.10;22.30;;;;;;6260275;28;20466;-64
2021/03/22 13:10:01;;;;;;;3.40;1.73;;;17.70;22.80;;;;;;6273539;28;20481;-64
2021/03/22 13:13:06;;;;;;;3.43;1.60;;;17.00;22.90;;;;;;6273234;28;20467;-64
2021/03/22 13:16:09;;;;;;;1.90;1.40;;;16.70;23.70;;;;;;6273504;28;20476;-65
2021/03/22 13:19:13;;;;;;;3.20;1.90;;;16.20;23.70;;;;;;6276482;28;20466;-65
2021/03/22 13:22:21;;;;;;;1.80;1.67;;;16.10;24.50;;;;;;6275449;28;20474;-65
2021/03/22 13:25:33;;;;;;;2.70;1.50;;;15.90;24.30;;;;;;6256460;28;20528;-65
2021/03/22 13:28:38;;;;;;;3.87;2.43;;;15.80;24.10;;;;;;6258029;28;20467;-64
2021/03/22 13:31:41;;;;;;;3.00;2.10;;;15.10;25.10;;;;;;6281537;28;20489;-63
2021/03/22 13:34:45;;;;;;;2.17;1.50;;;13.90;25.70;;;;;;6278668;28;20458;-64
2021/03/22 13:37:48;;;;;;;2.73;1.50;;;13.60;26.30;;;;;;6256741;28;20447;-64
2021/03/22 13:40:50;;;;;;;2.80;1.67;;;13.00;27.30;;;;;;6256881;28;20442;-63
2021/03/22 13:43:53;;;;;;;5.57;1.73;;;12.60;27.80;;;;;;6256912;28;20540;-63
2021/03/22 13:46:55;;;;;;;1.80;1.67;;;12.70;28.40;;;;;;6256803;28;20451;-63
2021/03/22 13:49:58;;;;;;;1.63;1.53;;;12.70;28.00;;;;;;6256783;28;20439;-64
2021/03/22 13:53:01;;;;;;;1.50;1.40;;;12.60;28.00;;;;;;6256552;28;20463;-64
2021/03/22 13:56:20;;;;;;;4.73;1.90;;;12.30;28.30;;;;;;6264642;28;20458;-63
2021/03/22 13:59:24;;;;;;;3.67;1.57;;;11.80;28.50;;;;;;6280972;28;20990;-64
2021/03/22 14:02:26;;;;;;;2.57;1.60;;;11.70;28.90;;;;;;6281428;28;20569;-63
2021/03/22 14:05:30;;;;;;;1.80;1.70;;;11.30;29.50;;;;;;6277709;28;20608;-63
2021/03/22 14:08:32;;;;;;;2.63;1.60;;;11.10;29.80;;;;;;6256302;28;20769;-64
2021/03/22 14:11:34;;;;;;;1.27;1.17;;;11.00;30.70;;;;;;6256229;28;20819;-63
2021/03/22 14:14:37;;;;;;;2.03;1.60;;;10.90;30.70;;;;;;6256559;28;20476;-63
2021/03/22 14:17:40;;;;;;;2.10;1.97;;;11.00;30.90;;;;;;6256616;28;20471;-64
2021/03/22 14:20:43;;;;;;;2.90;1.70;;;11.20;30.30;;;;;;6256404;28;20840;-64
2021/03/22 14:23:46;;;;;;;1.47;1.37;;;11.20;30.00;;;;;;6255778;28;20474;-62
2021/03/22 14:26:48;;;;;;;3.60;1.53;;;11.00;31.10;;;;;;6256780;28;20475;-62
2021/03/22 14:29:51;;;;;;;3.17;1.50;;;11.10;30.30;;;;;;6266814;28;20465;-63
2021/03/22 14:32:54;;;;;;;1.67;1.57;;;11.00;30.40;;;;;;6277153;28;20485;-60
2021/03/22 14:35:57;;;;;;;3.87;1.67;;;10.80;31.00;;;;;;6277490;28;20478;-62
2021/03/22 14:39:02;;;;;;;2.67;1.67;;;10.70;31.40;;;;;;6276883;28;20474;-62
2021/03/22 14:42:05;;;;;;;1.90;1.70;;;10.80;31.80;;;;;;6266169;28;20926;-62
2021/03/22 14:45:12;;;;;;;3.00;1.90;;;10.90;31.30;;;;;;6251941;28;20472;-62
2021/03/22 14:48:15;;;;;;;1.60;1.50;;;11.10;31.10;;;;;;6264023;28;20828;-62
2021/03/22 14:51:19;;;;;;;5.17;1.53;;;11.00;31.60;;;;;;6264108;28;20474;-62
2021/03/22 14:54:21;;;;;;;2.50;2.10;;;11.10;31.20;;;;;;6251905;28;20556;-62
2021/03/22 14:57:23;;;;;;;1.70;1.60;;;11.20;31.30;;;;;;6254929;28;20486;-62
2021/03/22 15:00:28;;;;;;;1.67;1.43;;;11.40;32.70;;;;;;6266986;28;20477;-62
2021/03/22 15:03:30;;;;;;;2.70;2.10;;;11.30;32.50;;;;;;6276276;28;20481;-62
2021/03/22 15:06:35;;;;;;;2.20;1.50;;;11.30;31.90;;;;;;6264053;28;20459;-62
2021/03/22 15:09:37;;;;;;;3.40;2.40;;;11.20;32.60;;;;;;6251557;28;20910;-62
2021/03/22 15:12:40;;;;;;;2.67;1.73;;;11.20;32.50;;;;;;6251554;28;20471;-63
2021/03/22 15:15:42;;;;;;;2.70;1.70;;;11.10;32.60;;;;;;6242321;28;20479;-63
2021/03/22 15:18:45;;;;;;;2.27;2.07;;;10.90;32.60;;;;;;6251370;28;20492;-63
2021/03/22 15:21:48;;;;;;;1.87;1.57;;;10.60;32.80;;;;;;6250702;28;20987;-66
2021/03/22 15:24:50;;;;;;;2.93;1.80;;;10.50;33.30;;;;;;6258400;28;20475;-66
2021/03/22 15:27:52;;;;;;;1.70;1.53;;;10.40;34.20;;;;;;6277599;28;20465;-66
2021/03/22 15:30:55;;;;;;;3.57;1.93;;;10.20;34.30;;;;;;6283609;28;20489;-66
2021/03/22 15:33:57;;;;;;;1.80;1.70;;;10.00;35.10;;;;;;6281901;28;21015;-65
2021/03/22 15:37:04;;;;;;;2.93;1.97;;;9.90;36.10;;;;;;6279774;28;20951;-66
2021/03/22 15:40:07;;;;;;;5.13;1.80;;;9.80;36.50;;;;;;6275712;28;20471;-65
2021/03/22 15:43:10;;;;;;;4.13;1.83;;;9.70;37.10;;;;;;6274196;28;20966;-65
2021/03/22 15:46:14;;;;;;;1.90;1.70;;;9.60;37.10;;;;;;6275355;28;20484;-65
2021/03/22 15:49:16;;;;;;;3.83;1.93;;;9.60;37.50;;;;;;6275302;28;20481;-65
2021/03/22 15:52:20;;;;;;;2.00;1.80;;;9.50;37.40;;;;;;6274001;28;20478;-65
2021/03/22 15:55:24;;;;;;;2.43;1.83;;;9.50;37.40;;;;;;6275160;28;20576;-65
2021/03/22 15:58:27;;;;;;;2.50;1.60;;;9.30;38.30;;;;;;6294457;28;20469;-65
2021/03/22 16:01:29;;;;;;;2.03;1.83;;;9.30;38.10;;;;;;6299625;28;21053;-65
2021/03/22 16:04:32;;;;;;;2.00;1.80;;;9.10;38.20;;;;;;6299957;28;20481;-66
2021/03/22 16:07:35;;;;;;;3.00;1.90;;;9.00;38.60;;;;;;6278879;28;20466;-66
2021/03/22 16:10:39;;;;;;;2.80;1.63;;;8.90;39.20;;;;;;6275231;28;20474;-66
2021/03/22 16:13:41;;;;;;;2.70;2.07;;;8.90;38.90;;;;;;6277227;28;20921;-66
2021/03/22 16:16:43;;;;;;;1.70;1.43;;;8.70;39.30;;;;;;6288005;28;20474;-66
2021/03/22 16:19:47;;;;;;;4.07;2.33;;;8.70;39.80;;;;;;6280890;28;20547;-66